Airport Name : Abbotsford

Other Name : Abbotsford

ICAO : CYXX

IATA : YXX

FAA :

Latitude : 49.025278

Longitude : -122.360556

Country : Canada

Local Date and Time : 15 Jul 2024 08:20

 

TAF (Terminal Aerodrome Forecast)

TAF CYXX 151140Z 1512/1612 24005KT P6SM SKC BECMG 1518/1520 22010KT BECMG 1604/1606 VRB03KT RMK NXT FCST BY 151800Z

 

METAR (METeorological Aerodrome Report)

CYXX 151500Z 22004KT 190V250 30SM SKC 17/12 A3011 RMK SLP197

CYXX 151400Z VRB02KT 30SM SKC 16/12 A3009 RMK SLP193

CYXX 151300Z 24003KT 230V310 30SM SKC 14/12 A3008 RMK SLP188

CYXX 151200Z 24006KT 30SM SKC 14/12 A3007 RMK SLP184